Time;durP1;ratioP1;P1;durP2;ratioP2;P2;SDS_P1;SDS_P2;PMS_P1;PMS_P2;Temp;Humidity;BMP_temperature;BMP_pressure;BME280_temperature;BME280_humidity;BME280_pressure;Samples;Min_cycle;Max_cycle;Signal;HPM_P1;HPM_P2
2022/06/20 00:01:43;;;;;;;6.10;5.50;;;;;;;;;;5061529;28;24422;-46
2022/06/20 00:04:14;;;;;;;8.63;5.50;;;;;;;;;;5065162;28;24453;-46
2022/06/20 00:06:39;;;;;;;7.85;5.00;;;;;;;;;;5064787;28;24411;-46
2022/06/20 00:09:04;;;;;;;7.32;5.78;;;;;;;;;;5058376;28;24447;-45
2022/06/20 00:11:41;;;;;;;7.30;5.50;;;;;;;;;;5062839;28;24513;-45
2022/06/20 00:14:10;;;;;;;9.50;5.70;;;;;;;;;;5065556;28;24537;-45
2022/06/20 00:16:35;;;;;;;5.90;5.20;;;;;;;;;;5065717;28;24544;-46
2022/06/20 00:19:00;;;;;;;6.90;5.27;;;;;;;;;;5059459;28;24513;-46
2022/06/20 00:21:25;;;;;;;7.00;5.50;;;;;;;;;;5070272;28;24438;-46
2022/06/20 00:23:50;;;;;;;7.50;5.68;;;;;;;;;;5069307;28;24426;-47
2022/06/20 00:26:16;;;;;;;5.97;5.30;;;;;;;;;;5070350;28;24446;-46
2022/06/20 00:28:42;;;;;;;7.53;5.57;;;;;;;;;;5062725;28;24489;-47
2022/06/20 00:31:07;;;;;;;6.40;5.80;;;;;;;;;;5066944;28;24422;-47
2022/06/20 00:33:32;;;;;;;8.50;6.40;;;;;;;;;;5073086;28;24442;-47
2022/06/20 00:35:58;;;;;;;6.73;5.90;;;;;;;;;;5069310;28;24452;-47
2022/06/20 00:38:24;;;;;;;7.65;5.60;;;;;;;;;;5074941;28;24424;-46
2022/06/20 00:40:51;;;;;;;6.18;5.60;;;;;;;;;;5063855;28;24849;-45
2022/06/20 00:43:35;;;;;;;6.22;5.47;;;;;;;;;;5076160;28;24426;-45
2022/06/20 00:46:02;;;;;;;6.47;5.68;;;;;;;;;;5066189;28;25079;-45
2022/06/20 00:48:31;;;;;;;6.80;5.15;;;;;;;;;;5066315;28;24446;-45
2022/06/20 00:51:00;;;;;;;6.72;5.30;;;;;;;;;;5058904;28;24427;-46
2022/06/20 00:53:49;;;;;;;7.00;5.30;;;;;;;;;;5066380;28;24425;-45
2022/06/20 00:56:18;;;;;;;7.10;5.77;;;;;;;;;;5053867;28;24431;-46
2022/06/20 00:58:53;;;;;;;6.00;5.40;;;;;;;;;;5069170;28;25040;-46
2022/06/20 01:01:20;;;;;;;5.55;4.90;;;;;;;;;;5059046;28;24431;-46
2022/06/20 01:03:48;;;;;;;7.55;5.40;;;;;;;;;;5064483;28;24422;-46
2022/06/20 01:06:21;;;;;;;7.38;5.90;;;;;;;;;;5069150;28;24425;-46
2022/06/20 01:08:50;;;;;;;7.57;5.68;;;;;;;;;;5071435;28;24449;-46
2022/06/20 01:11:17;;;;;;;6.20;5.60;;;;;;;;;;5067342;28;24419;-47
2022/06/20 01:13:43;;;;;;;6.55;5.30;;;;;;;;;;5065863;28;25027;-46
2022/06/20 01:16:14;;;;;;;5.80;5.20;;;;;;;;;;5066954;28;24431;-47
2022/06/20 01:18:40;;;;;;;7.93;5.67;;;;;;;;;;5067457;28;24511;-47
2022/06/20 01:21:10;;;;;;;6.55;5.80;;;;;;;;;;5071390;28;25195;-46
2022/06/20 01:23:41;;;;;;;7.00;5.60;;;;;;;;;;5065423;28;24568;-46
2022/06/20 01:26:15;;;;;;;7.93;5.55;;;;;;;;;;5068908;28;24441;-46
2022/06/20 01:28:42;;;;;;;5.70;5.10;;;;;;;;;;5065519;28;24789;-46
2022/06/20 01:31:09;;;;;;;6.20;5.60;;;;;;;;;;5064057;28;24419;-46
2022/06/20 01:33:35;;;;;;;5.97;5.40;;;;;;;;;;5066950;28;25033;-46
2022/06/20 01:38:44;;;;;;;5.93;5.32;;;;;;;;;;5067217;28;24422;-45
2022/06/20 01:43:55;;;;;;;6.65;5.50;;;;;;;;;;5076858;28;24413;-45
2022/06/20 01:46:22;;;;;;;6.00;5.40;;;;;;;;;;5063689;28;24936;-45
2022/06/20 01:48:52;;;;;;;6.10;5.30;;;;;;;;;;5068526;28;24434;-45
2022/06/20 01:51:19;;;;;;;6.47;5.83;;;;;;;;;;5063652;28;24423;-46
2022/06/20 01:53:45;;;;;;;8.63;5.50;;;;;;;;;;5065019;28;24425;-45
2022/06/20 01:56:10;;;;;;;6.00;5.40;;;;;;;;;;5070723;28;24841;-45
2022/06/20 01:58:41;;;;;;;6.10;5.53;;;;;;;;;;5066344;28;24418;-46
2022/06/20 02:01:07;;;;;;;7.07;5.40;;;;;;;;;;5064585;28;24511;-45
2022/06/20 02:03:34;;;;;;;7.03;5.70;;;;;;;;;;5063139;28;24581;-45
2022/06/20 02:05:59;;;;;;;6.50;5.90;;;;;;;;;;5069173;28;24430;-45
2022/06/20 02:08:24;;;;;;;5.40;4.90;;;;;;;;;;5072874;28;24435;-46
2022/06/20 02:10:56;;;;;;;6.77;5.87;;;;;;;;;;5065806;28;24421;-46
2022/06/20 02:13:22;;;;;;;6.75;5.90;;;;;;;;;;5061845;28;24522;-46
2022/06/20 02:15:49;;;;;;;6.82;5.80;;;;;;;;;;5067589;28;25025;-46
2022/06/20 02:18:15;;;;;;;6.93;5.60;;;;;;;;;;5062406;28;24434;-46
2022/06/20 02:20:45;;;;;;;6.32;5.72;;;;;;;;;;5071107;28;24578;-46
2022/06/20 02:23:13;;;;;;;8.32;5.70;;;;;;;;;;5063831;28;24972;-45
2022/06/20 02:25:38;;;;;;;5.90;5.40;;;;;;;;;;5064915;28;24890;-46
2022/06/20 02:28:07;;;;;;;6.65;6.05;;;;;;;;;;5062107;28;25103;-46
2022/06/20 02:30:33;;;;;;;7.10;5.60;;;;;;;;;;5056651;28;24414;-46
2022/06/20 02:33:02;;;;;;;6.22;5.50;;;;;;;;;;5060545;28;24429;-46
2022/06/20 02:35:28;;;;;;;6.20;5.60;;;;;;;;;;5062363;28;24514;-47
2022/06/20 02:37:53;;;;;;;7.00;6.22;;;;;;;;;;5061901;28;24556;-45
2022/06/20 02:40:20;;;;;;;5.97;5.30;;;;;;;;;;5065701;28;24839;-46
2022/06/20 02:42:48;;;;;;;7.65;6.10;;;;;;;;;;5069400;28;25057;-45
2022/06/20 02:45:14;;;;;;;8.38;6.20;;;;;;;;;;5060547;28;24603;-45
2022/06/20 02:47:39;;;;;;;6.13;5.40;;;;;;;;;;5063382;28;25051;-45
2022/06/20 02:50:05;;;;;;;6.20;5.60;;;;;;;;;;5061849;28;24426;-46
2022/06/20 02:52:35;;;;;;;6.53;5.93;;;;;;;;;;5065546;28;24505;-45
2022/06/20 02:55:00;;;;;;;6.13;5.53;;;;;;;;;;5068752;28;24421;-45
2022/06/20 02:57:30;;;;;;;7.20;5.90;;;;;;;;;;5062785;28;24428;-45
2022/06/20 02:59:56;;;;;;;6.85;5.75;;;;;;;;;;5062166;28;24422;-50
2022/06/20 03:02:23;;;;;;;6.60;5.90;;;;;;;;;;5074595;28;24799;-45
2022/06/20 03:04:49;;;;;;;6.68;5.97;;;;;;;;;;5070138;28;24441;-45
2022/06/20 03:07:23;;;;;;;8.13;6.00;;;;;;;;;;5060364;28;24464;-45
2022/06/20 03:09:50;;;;;;;6.63;5.93;;;;;;;;;;5070731;28;24422;-46
2022/06/20 03:12:16;;;;;;;9.00;5.80;;;;;;;;;;5059388;28;25097;-46
2022/06/20 03:14:43;;;;;;;6.60;6.00;;;;;;;;;;5060324;28;24546;-45
2022/06/20 03:17:08;;;;;;;8.98;6.45;;;;;;;;;;5059041;28;24418;-45
2022/06/20 03:19:35;;;;;;;6.50;5.70;;;;;;;;;;5064145;28;24788;-45
2022/06/20 03:22:03;;;;;;;6.20;5.60;;;;;;;;;;5073476;28;24417;-45
2022/06/20 03:24:30;;;;;;;10.07;6.60;;;;;;;;;;5066520;28;24979;-46
2022/06/20 03:26:55;;;;;;;6.57;5.82;;;;;;;;;;5068257;28;24430;-45
2022/06/20 03:29:21;;;;;;;6.50;5.80;;;;;;;;;;5058724;28;24465;-45
2022/06/20 03:31:46;;;;;;;7.85;6.03;;;;;;;;;;5058952;28;25199;-46
2022/06/20 03:34:12;;;;;;;7.30;6.10;;;;;;;;;;5081107;28;24426;-45
2022/06/20 03:36:37;;;;;;;8.07;6.40;;;;;;;;;;5078677;28;24529;-45
2022/06/20 03:39:04;;;;;;;6.70;6.00;;;;;;;;;;5086973;28;24399;-45
2022/06/20 03:41:30;;;;;;;6.82;6.00;;;;;;;;;;5083961;28;24582;-47
2022/06/20 03:43:59;;;;;;;6.47;5.82;;;;;;;;;;5077980;28;24518;-47
2022/06/20 03:46:29;;;;;;;8.00;7.20;;;;;;;;;;5072081;28;24441;-47
2022/06/20 03:49:00;;;;;;;7.30;6.30;;;;;;;;;;5073572;28;25018;-46
2022/06/20 03:51:29;;;;;;;6.78;6.07;;;;;;;;;;5070178;28;24427;-46
2022/06/20 03:54:00;;;;;;;6.68;5.95;;;;;;;;;;5061287;28;24419;-45
2022/06/20 03:56:31;;;;;;;6.30;5.70;;;;;;;;;;5066529;28;24419;-46
2022/06/20 03:59:17;;;;;;;6.90;5.95;;;;;;;;;;5069121;28;24434;-46
2022/06/20 04:01:45;;;;;;;7.15;6.28;;;;;;;;;;5065124;28;24522;-46
2022/06/20 04:04:31;;;;;;;7.30;6.28;;;;;;;;;;5063384;28;24414;-46
2022/06/20 04:06:58;;;;;;;7.72;6.70;;;;;;;;;;5067435;28;24432;-46
2022/06/20 04:12:16;;;;;;;7.60;6.82;;;;;;;;;;5072253;28;25049;-46
2022/06/20 04:14:47;;;;;;;7.38;6.60;;;;;;;;;;5063054;28;24536;-45
2022/06/20 04:20:04;;;;;;;9.40;6.43;;;;;;;;;;5064400;28;24426;-45
2022/06/20 04:22:33;;;;;;;7.28;6.40;;;;;;;;;;5068985;28;24802;-45
2022/06/20 04:25:03;;;;;;;6.60;6.00;;;;;;;;;;5072104;28;24488;-45
2022/06/20 04:27:31;;;;;;;7.28;6.60;;;;;;;;;;5058882;28;24430;-45
2022/06/20 04:30:05;;;;;;;7.00;6.05;;;;;;;;;;5064305;28;25009;-45
2022/06/20 04:32:32;;;;;;;6.65;6.05;;;;;;;;;;5071877;28;24423;-47
2022/06/20 04:35:05;;;;;;;5.72;5.22;;;;;;;;;;5060823;28;24449;-47
2022/06/20 04:37:38;;;;;;;6.40;5.80;;;;;;;;;;5064040;28;24568;-47
2022/06/20 04:40:05;;;;;;;7.47;6.18;;;;;;;;;;5065176;28;24538;-47
2022/06/20 04:42:38;;;;;;;6.85;6.15;;;;;;;;;;5065259;28;24431;-46
2022/06/20 04:45:12;;;;;;;8.60;6.05;;;;;;;;;;5066428;28;24537;-46
2022/06/20 04:47:58;;;;;;;7.05;5.93;;;;;;;;;;5063010;28;24437;-47
2022/06/20 04:50:26;;;;;;;6.43;5.82;;;;;;;;;;5066711;28;24484;-47
2022/06/20 04:52:53;;;;;;;6.32;5.82;;;;;;;;;;5081142;28;25240;-47
2022/06/20 04:55:21;;;;;;;6.43;5.82;;;;;;;;;;5078664;28;24453;-47
2022/06/20 04:57:46;;;;;;;7.97;6.05;;;;;;;;;;5070137;28;24527;-47
2022/06/20 05:00:17;;;;;;;7.30;6.60;;;;;;;;;;5065171;28;25051;-47
2022/06/20 05:02:42;;;;;;;6.47;5.88;;;;;;;;;;5071725;28;24525;-47
2022/06/20 05:05:12;;;;;;;7.40;6.38;;;;;;;;;;5065462;28;24527;-47
2022/06/20 05:07:38;;;;;;;7.23;6.30;;;;;;;;;;5075497;28;24959;-47
2022/06/20 05:10:14;;;;;;;6.80;6.10;;;;;;;;;;5083379;28;24431;-47
2022/06/20 05:12:43;;;;;;;6.80;5.90;;;;;;;;;;5065334;28;25368;-47
2022/06/20 05:15:11;;;;;;;8.65;6.88;;;;;;;;;;5064655;28;24437;-47
2022/06/20 05:17:36;;;;;;;8.50;6.70;;;;;;;;;;5064166;28;24439;-48
2022/06/20 05:20:14;;;;;;;7.60;5.90;;;;;;;;;;5066195;28;24403;-47
2022/06/20 05:22:42;;;;;;;7.40;6.40;;;;;;;;;;5066043;28;25750;-46
2022/06/20 05:25:10;;;;;;;7.18;6.35;;;;;;;;;;5065036;28;24991;-45
2022/06/20 05:27:50;;;;;;;6.85;6.28;;;;;;;;;;5058340;28;24453;-48
2022/06/20 05:30:17;;;;;;;6.55;5.95;;;;;;;;;;5048377;28;24444;-47
2022/06/20 05:32:50;;;;;;;8.35;6.80;;;;;;;;;;5049574;28;24510;-46
2022/06/20 05:35:22;;;;;;;7.22;6.55;;;;;;;;;;5068401;28;24403;-46
2022/06/20 05:37:53;;;;;;;6.80;6.20;;;;;;;;;;5068804;28;24406;-47
2022/06/20 05:40:24;;;;;;;6.72;6.13;;;;;;;;;;5068163;28;24395;-47
2022/06/20 05:42:49;;;;;;;7.10;6.40;;;;;;;;;;5068241;28;25007;-47
2022/06/20 05:45:18;;;;;;;7.32;6.15;;;;;;;;;;5066365;28;24457;-50
2022/06/20 05:47:47;;;;;;;6.80;5.60;;;;;;;;;;5068288;28;24422;-47
2022/06/20 05:50:31;;;;;;;8.10;7.03;;;;;;;;;;5068375;28;24407;-47
2022/06/20 05:52:57;;;;;;;8.00;7.20;;;;;;;;;;5067926;28;25060;-47
2022/06/20 05:55:26;;;;;;;6.93;6.32;;;;;;;;;;5065995;28;24485;-47
2022/06/20 05:57:52;;;;;;;7.85;7.15;;;;;;;;;;5067005;28;24512;-47
2022/06/20 06:00:19;;;;;;;6.40;5.90;;;;;;;;;;5070921;28;24422;-47
2022/06/20 06:02:57;;;;;;;6.47;5.95;;;;;;;;;;5071391;28;25003;-48
2022/06/20 06:05:31;;;;;;;6.80;6.20;;;;;;;;;;5070426;28;24469;-47
2022/06/20 06:08:09;;;;;;;6.60;6.10;;;;;;;;;;5057202;28;25272;-47
2022/06/20 06:10:41;;;;;;;7.13;6.43;;;;;;;;;;5065810;28;24530;-48
2022/06/20 06:13:25;;;;;;;6.90;6.30;;;;;;;;;;5064827;28;24419;-48
2022/06/20 06:18:42;;;;;;;8.52;7.53;;;;;;;;;;5064807;28;24499;-46
2022/06/20 06:21:08;;;;;;;7.80;7.00;;;;;;;;;;5070623;28;24415;-47
2022/06/20 06:23:33;;;;;;;7.70;7.00;;;;;;;;;;5066756;28;24437;-45
2022/06/20 06:25:58;;;;;;;8.27;7.47;;;;;;;;;;5077397;28;24419;-46
2022/06/20 06:28:25;;;;;;;8.20;6.50;;;;;;;;;;5066266;28;24438;-46
2022/06/20 06:30:56;;;;;;;8.95;7.30;;;;;;;;;;5067097;28;24947;-46
2022/06/20 06:33:28;;;;;;;7.50;6.70;;;;;;;;;;5065943;28;24418;-47
2022/06/20 06:35:56;;;;;;;10.77;6.80;;;;;;;;;;5070821;28;24774;-46
2022/06/20 06:38:26;;;;;;;7.25;6.40;;;;;;;;;;5062489;28;24437;-46
2022/06/20 06:40:53;;;;;;;8.23;6.20;;;;;;;;;;5060622;28;24467;-45
2022/06/20 06:43:26;;;;;;;6.20;5.60;;;;;;;;;;5080284;28;24559;-46
2022/06/20 06:45:52;;;;;;;7.65;5.90;;;;;;;;;;5087397;28;24458;-46
2022/06/20 06:48:25;;;;;;;6.13;5.10;;;;;;;;;;5072105;28;25032;-45
2022/06/20 06:50:59;;;;;;;8.80;5.90;;;;;;;;;;5066942;28;24502;-46
2022/06/20 06:53:30;;;;;;;8.85;7.05;;;;;;;;;;5064318;28;24510;-45
2022/06/20 06:55:57;;;;;;;7.72;6.63;;;;;;;;;;5044331;28;24410;-45
2022/06/20 06:58:29;;;;;;;9.93;7.30;;;;;;;;;;5053399;28;24952;-45
2022/06/20 07:01:06;;;;;;;9.63;7.60;;;;;;;;;;5067042;28;24440;-46
2022/06/20 07:03:51;;;;;;;8.10;7.30;;;;;;;;;;5064188;28;24432;-45
2022/06/20 07:06:23;;;;;;;8.00;7.20;;;;;;;;;;5066330;28;24423;-46
2022/06/20 07:08:52;;;;;;;9.75;7.78;;;;;;;;;;5065949;28;24438;-46
2022/06/20 07:11:21;;;;;;;8.25;7.45;;;;;;;;;;5066525;28;24461;-46
2022/06/20 07:14:02;;;;;;;8.65;7.75;;;;;;;;;;5066440;28;24410;-46
2022/06/20 07:16:33;;;;;;;10.40;8.18;;;;;;;;;;5062776;28;25029;-46
2022/06/20 07:18:59;;;;;;;9.32;8.40;;;;;;;;;;5064772;28;24959;-46
2022/06/20 07:21:25;;;;;;;10.38;7.97;;;;;;;;;;5066462;28;24418;-46
2022/06/20 07:23:56;;;;;;;8.70;7.80;;;;;;;;;;5066120;28;24776;-46
2022/06/20 07:26:23;;;;;;;11.02;10.00;;;;;;;;;;5065374;28;24471;-47
2022/06/20 07:28:55;;;;;;;9.80;8.90;;;;;;;;;;5066434;28;24457;-46
2022/06/20 07:31:37;;;;;;;10.57;9.52;;;;;;;;;;5068067;28;24500;-46
2022/06/20 07:34:05;;;;;;;9.73;8.93;;;;;;;;;;5067952;28;24484;-46
2022/06/20 07:36:46;;;;;;;11.40;10.40;;;;;;;;;;5068917;28;24506;-45
2022/06/20 07:39:16;;;;;;;10.60;9.63;;;;;;;;;;5069459;28;24418;-46
2022/06/20 07:41:47;;;;;;;10.85;9.80;;;;;;;;;;5070253;28;24804;-46
2022/06/20 07:44:18;;;;;;;9.63;8.60;;;;;;;;;;5070030;28;24846;-46
2022/06/20 07:46:52;;;;;;;9.82;8.85;;;;;;;;;;5070501;28;24456;-46
2022/06/20 07:49:20;;;;;;;9.15;8.35;;;;;;;;;;5066605;28;25007;-46
2022/06/20 07:51:46;;;;;;;10.50;9.60;;;;;;;;;;5068886;28;24414;-46
2022/06/20 07:54:16;;;;;;;9.57;8.75;;;;;;;;;;5070214;28;24808;-45
2022/06/20 07:56:50;;;;;;;8.50;7.80;;;;;;;;;;5070125;28;25333;-46
2022/06/20 07:59:32;;;;;;;9.10;8.20;;;;;;;;;;5070384;28;24407;-46
2022/06/20 08:02:01;;;;;;;11.50;10.05;;;;;;;;;;5068509;28;24526;-46
2022/06/20 08:04:29;;;;;;;9.18;8.48;;;;;;;;;;5067893;28;24407;-46
2022/06/20 08:07:01;;;;;;;8.90;8.10;;;;;;;;;;5070434;28;24391;-45
2022/06/20 08:09:27;;;;;;;9.35;8.30;;;;;;;;;;5070032;28;24778;-45
2022/06/20 08:11:55;;;;;;;9.10;8.37;;;;;;;;;;5069147;28;24422;-46
2022/06/20 08:14:23;;;;;;;9.30;8.40;;;;;;;;;;5069596;28;24394;-46
2022/06/20 08:16:49;;;;;;;8.98;8.02;;;;;;;;;;5069750;28;24955;-46
2022/06/20 08:19:15;;;;;;;8.75;8.05;;;;;;;;;;5068018;28;24510;-45
2022/06/20 08:21:45;;;;;;;8.50;7.60;;;;;;;;;;5069165;28;24839;-46
2022/06/20 08:24:15;;;;;;;8.55;7.75;;;;;;;;;;5069173;28;24465;-45
2022/06/20 08:26:47;;;;;;;9.05;8.15;;;;;;;;;;5069368;28;24468;-45
2022/06/20 08:29:15;;;;;;;8.50;7.80;;;;;;;;;;5069624;28;24529;-46
2022/06/20 08:31:43;;;;;;;8.70;7.80;;;;;;;;;;5069444;28;24998;-46
2022/06/20 08:34:12;;;;;;;7.90;7.30;;;;;;;;;;5065789;28;24444;-46
2022/06/20 08:36:50;;;;;;;8.50;7.80;;;;;;;;;;5069514;28;24387;-46
2022/06/20 08:39:32;;;;;;;8.02;7.32;;;;;;;;;;5069388;28;24472;-46
2022/06/20 08:42:16;;;;;;;7.82;7.22;;;;;;;;;;5069400;28;24931;-46
2022/06/20 08:44:41;;;;;;;7.55;6.95;;;;;;;;;;5066935;28;24550;-47
2022/06/20 08:47:16;;;;;;;8.18;7.47;;;;;;;;;;5069621;28;24506;-45
2022/06/20 08:49:55;;;;;;;7.82;7.20;;;;;;;;;;5067439;28;24423;-49
2022/06/20 08:52:46;;;;;;;7.70;7.10;;;;;;;;;;5066293;28;24433;-45
2022/06/20 08:55:14;;;;;;;7.60;6.90;;;;;;;;;;5065475;28;24415;-46
2022/06/20 08:57:59;;;;;;;8.10;7.50;;;;;;;;;;5069067;28;24457;-45
2022/06/20 09:00:30;;;;;;;8.00;7.30;;;;;;;;;;5069187;28;24399;-45
2022/06/20 09:03:01;;;;;;;7.50;6.90;;;;;;;;;;5069060;28;24489;-45
2022/06/20 09:05:40;;;;;;;7.38;6.68;;;;;;;;;;5067266;28;25027;-46
2022/06/20 09:08:24;;;;;;;8.57;7.88;;;;;;;;;;5068902;28;24549;-46
2022/06/20 09:11:08;;;;;;;7.80;7.20;;;;;;;;;;5068955;28;24402;-46
2022/06/20 09:13:40;;;;;;;7.70;7.10;;;;;;;;;;5068667;28;24934;-46
2022/06/20 09:16:17;;;;;;;8.27;7.57;;;;;;;;;;5066959;28;24434;-46
2022/06/20 09:19:04;;;;;;;8.52;7.18;;;;;;;;;;5068068;28;24442;-45
2022/06/20 09:21:33;;;;;;;7.97;7.28;;;;;;;;;;5068899;28;24398;-45
2022/06/20 09:24:13;;;;;;;7.38;6.78;;;;;;;;;;5067959;28;24411;-46
2022/06/20 09:27:02;;;;;;;7.40;6.80;;;;;;;;;;5067364;28;24438;-46
2022/06/20 09:29:35;;;;;;;7.40;6.80;;;;;;;;;;5057483;28;24449;-46
2022/06/20 09:32:00;;;;;;;7.93;7.32;;;;;;;;;;5068549;28;24720;-46
2022/06/20 09:34:25;;;;;;;7.55;6.95;;;;;;;;;;5068307;28;24615;-46
2022/06/20 09:36:53;;;;;;;8.10;7.40;;;;;;;;;;5066550;28;24427;-46
2022/06/20 09:39:38;;;;;;;8.10;7.50;;;;;;;;;;5068110;28;24948;-46
2022/06/20 09:42:27;;;;;;;7.95;7.25;;;;;;;;;;5068777;28;24401;-46
2022/06/20 09:45:10;;;;;;;7.40;6.90;;;;;;;;;;5068031;28;24494;-46
2022/06/20 09:47:48;;;;;;;9.30;8.50;;;;;;;;;;5064473;28;24449;-46
2022/06/20 09:50:31;;;;;;;9.87;8.43;;;;;;;;;;5068479;28;24447;-45
2022/06/20 09:53:08;;;;;;;7.90;7.20;;;;;;;;;;5067368;28;24476;-46
2022/06/20 09:55:41;;;;;;;8.65;7.93;;;;;;;;;;5067877;28;24734;-46
2022/06/20 09:58:10;;;;;;;8.02;7.18;;;;;;;;;;5067214;28;24530;-46
2022/06/20 10:00:45;;;;;;;8.80;8.02;;;;;;;;;;5067854;28;24473;-46
2022/06/20 10:03:28;;;;;;;8.30;7.68;;;;;;;;;;5067888;28;24403;-46
2022/06/20 10:06:01;;;;;;;8.60;7.90;;;;;;;;;;5067708;28;24445;-46
2022/06/20 10:08:34;;;;;;;8.10;7.50;;;;;;;;;;5066022;28;24431;-46
2022/06/20 10:11:09;;;;;;;8.85;8.15;;;;;;;;;;5067624;28;24964;-46
2022/06/20 10:13:45;;;;;;;7.65;7.05;;;;;;;;;;5067509;28;24724;-45
2022/06/20 10:16:16;;;;;;;8.60;7.70;;;;;;;;;;5067839;28;24514;-45
2022/06/20 10:18:48;;;;;;;8.20;7.50;;;;;;;;;;5064703;28;25040;-45
2022/06/20 10:21:21;;;;;;;8.10;7.40;;;;;;;;;;5066293;28;25039;-45
2022/06/20 10:23:59;;;;;;;8.00;7.40;;;;;;;;;;5067164;28;24967;-45
2022/06/20 10:26:36;;;;;;;7.97;7.20;;;;;;;;;;5067414;28;24407;-46
2022/06/20 10:29:09;;;;;;;8.30;7.60;;;;;;;;;;5067099;28;25062;-46
2022/06/20 10:31:39;;;;;;;8.85;8.10;;;;;;;;;;5065780;28;24434;-47
2022/06/20 10:34:07;;;;;;;10.82;8.40;;;;;;;;;;5067156;28;24759;-47
2022/06/20 10:36:40;;;;;;;9.88;9.05;;;;;;;;;;5067258;28;24457;-47
2022/06/20 10:39:08;;;;;;;11.20;10.10;;;;;;;;;;5067377;28;24459;-46
2022/06/20 10:41:39;;;;;;;11.03;10.07;;;;;;;;;;5067131;28;24967;-46
2022/06/20 10:44:27;;;;;;;11.98;10.68;;;;;;;;;;5065716;28;24446;-46
2022/06/20 10:47:07;;;;;;;10.90;10.00;;;;;;;;;;5067090;28;24399;-46
2022/06/20 10:49:32;;;;;;;11.00;9.80;;;;;;;;;;5067249;28;24463;-46
2022/06/20 10:52:16;;;;;;;11.27;10.35;;;;;;;;;;5066785;28;24452;-47
2022/06/20 10:55:07;;;;;;;12.43;11.20;;;;;;;;;;5066843;28;24395;-46
2022/06/20 10:57:40;;;;;;;11.40;10.30;;;;;;;;;;5063712;28;24427;-45
2022/06/20 11:00:14;;;;;;;11.88;10.77;;;;;;;;;;5067255;28;24398;-46
2022/06/20 11:02:57;;;;;;;11.37;10.20;;;;;;;;;;5066655;28;24913;-46
2022/06/20 11:05:36;;;;;;;12.55;11.35;;;;;;;;;;5066266;28;24398;-46
2022/06/20 11:08:08;;;;;;;11.43;10.40;;;;;;;;;;5065563;28;24858;-46
2022/06/20 11:10:36;;;;;;;10.43;9.43;;;;;;;;;;5066366;28;24399;-46
2022/06/20 11:13:12;;;;;;;11.10;10.10;;;;;;;;;;5066446;28;25319;-46
2022/06/20 11:15:41;;;;;;;11.23;10.07;;;;;;;;;;5066627;28;25031;-46
2022/06/20 11:18:17;;;;;;;10.57;9.48;;;;;;;;;;5066730;28;24386;-47
2022/06/20 11:21:01;;;;;;;10.55;9.65;;;;;;;;;;5064994;28;24544;-45
2022/06/20 11:23:50;;;;;;;11.00;10.10;;;;;;;;;;5066652;28;24506;-47
2022/06/20 11:26:21;;;;;;;10.95;10.00;;;;;;;;;;5060708;28;24493;-46
2022/06/20 11:29:02;;;;;;;10.85;9.85;;;;;;;;;;5066706;28;24518;-46
2022/06/20 11:31:50;;;;;;;10.63;9.63;;;;;;;;;;5066608;28;24493;-46
2022/06/20 11:34:24;;;;;;;11.88;10.77;;;;;;;;;;5064836;28;24506;-46
2022/06/20 11:37:11;;;;;;;11.25;10.25;;;;;;;;;;5066537;28;24387;-45
2022/06/20 11:39:48;;;;;;;11.52;10.43;;;;;;;;;;5066401;28;24419;-45
2022/06/20 11:42:14;;;;;;;9.65;8.75;;;;;;;;;;5066382;28;24848;-45
2022/06/20 11:44:49;;;;;;;10.18;9.27;;;;;;;;;;5064301;28;24895;-45
2022/06/20 11:47:29;;;;;;;10.03;9.03;;;;;;;;;;5066705;28;24557;-45
2022/06/20 11:50:18;;;;;;;9.77;8.88;;;;;;;;;;5066265;28;24395;-46
2022/06/20 11:52:59;;;;;;;9.30;8.55;;;;;;;;;;5066377;28;24929;-46
2022/06/20 11:55:31;;;;;;;9.15;8.45;;;;;;;;;;5066539;28;24448;-46
2022/06/20 11:58:04;;;;;;;10.00;9.20;;;;;;;;;;5063386;28;24986;-46
2022/06/20 12:00:35;;;;;;;8.95;8.25;;;;;;;;;;5066282;28;24737;-46
2022/06/20 12:03:18;;;;;;;8.02;7.43;;;;;;;;;;5065617;28;24438;-45
2022/06/20 12:05:54;;;;;;;8.18;7.47;;;;;;;;;;5066274;28;24399;-45
2022/06/20 12:08:19;;;;;;;7.80;7.30;;;;;;;;;;5065502;28;24504;-46
2022/06/20 12:10:47;;;;;;;8.77;8.10;;;;;;;;;;5065799;28;24431;-45
2022/06/20 12:13:32;;;;;;;8.40;7.70;;;;;;;;;;5066047;28;24409;-45
2022/06/20 12:16:21;;;;;;;7.70;7.10;;;;;;;;;;5067708;28;24382;-45
2022/06/20 12:23:18;;;;;;;8.60;7.90;;;;;;;;;;5069988;28;24398;-45
2022/06/20 12:24:16;;;;;;;6.82;6.22;;;;;;;;;;5069729;28;25166;-47
2022/06/20 12:26:41;;;;;;;5.50;5.10;;;;;;;;;;5069523;28;24415;-46
2022/06/20 12:29:12;;;;;;;5.20;4.80;;;;;;;;;;5069749;28;24502;-46
2022/06/20 12:31:38;;;;;;;7.05;5.20;;;;;;;;;;5068666;28;24421;-47
2022/06/20 12:34:23;;;;;;;4.90;4.60;;;;;;;;;;5069383;28;24402;-46
2022/06/20 12:36:55;;;;;;;4.93;4.63;;;;;;;;;;5069564;28;24546;-46
2022/06/20 12:39:32;;;;;;;4.50;4.10;;;;;;;;;;5069369;28;24391;-47
2022/06/20 12:42:04;;;;;;;4.90;4.50;;;;;;;;;;5069453;28;25070;-46
2022/06/20 12:44:44;;;;;;;5.22;4.88;;;;;;;;;;5067927;28;25018;-46
2022/06/20 12:47:18;;;;;;;4.70;4.40;;;;;;;;;;5069014;28;24959;-46
2022/06/20 12:49:44;;;;;;;5.40;5.00;;;;;;;;;;5069390;28;24430;-46
2022/06/20 12:52:09;;;;;;;4.40;4.10;;;;;;;;;;5068215;28;24430;-45
2022/06/20 12:54:47;;;;;;;4.80;4.47;;;;;;;;;;5069423;28;25171;-46
2022/06/20 12:57:15;;;;;;;4.63;4.32;;;;;;;;;;5068570;28;25027;-45
2022/06/20 13:00:01;;;;;;;4.00;3.80;;;;;;;;;;5069283;28;24493;-47
2022/06/20 13:02:44;;;;;;;5.10;4.70;;;;;;;;;;5067613;28;24483;-47
2022/06/20 13:05:28;;;;;;;4.72;4.43;;;;;;;;;;5068944;28;24439;-47
2022/06/20 13:08:08;;;;;;;4.30;4.00;;;;;;;;;;5069076;28;24411;-47
2022/06/20 13:10:42;;;;;;;5.13;4.73;;;;;;;;;;5068875;28;24948;-46
2022/06/20 13:13:16;;;;;;;4.70;4.30;;;;;;;;;;5068502;28;24875;-46
2022/06/20 13:15:48;;;;;;;4.60;4.30;;;;;;;;;;5065898;28;24828;-46
2022/06/20 13:18:25;;;;;;;4.20;3.90;;;;;;;;;;5068857;28;24476;-46
2022/06/20 13:21:09;;;;;;;4.72;4.43;;;;;;;;;;5066008;28;24418;-46
2022/06/20 13:23:53;;;;;;;5.13;4.72;;;;;;;;;;5068472;28;24430;-46
2022/06/20 13:26:36;;;;;;;5.05;4.75;;;;;;;;;;5067567;28;24422;-47
2022/06/20 13:29:02;;;;;;;4.90;4.60;;;;;;;;;;5067544;28;24417;-46
2022/06/20 13:31:32;;;;;;;4.80;4.40;;;;;;;;;;5067386;28;24513;-46
2022/06/20 13:34:06;;;;;;;4.40;4.10;;;;;;;;;;5068443;28;24808;-46
2022/06/20 13:36:43;;;;;;;5.00;4.70;;;;;;;;;;5068558;28;24497;-47
2022/06/20 13:39:16;;;;;;;4.60;4.30;;;;;;;;;;5068141;28;24524;-47
2022/06/20 13:41:44;;;;;;;5.00;4.70;;;;;;;;;;5068273;28;24862;-47
2022/06/20 13:44:17;;;;;;;5.00;4.70;;;;;;;;;;5066217;28;24545;-47
2022/06/20 13:47:00;;;;;;;5.20;4.80;;;;;;;;;;5068353;28;24536;-47
2022/06/20 13:49:28;;;;;;;4.88;4.57;;;;;;;;;;5068092;28;24818;-47
2022/06/20 13:52:07;;;;;;;4.88;4.47;;;;;;;;;;5068125;28;24493;-46
2022/06/20 13:54:35;;;;;;;5.13;4.72;;;;;;;;;;5067004;28;24987;-47
2022/06/20 13:57:08;;;;;;;5.30;5.00;;;;;;;;;;5067767;28;24453;-47
2022/06/20 13:59:51;;;;;;;5.15;4.85;;;;;;;;;;5067871;28;24452;-46
2022/06/20 14:02:28;;;;;;;4.53;4.22;;;;;;;;;;5068070;28;24391;-46
2022/06/20 14:04:53;;;;;;;4.60;4.30;;;;;;;;;;5066263;28;24391;-46
2022/06/20 14:07:22;;;;;;;4.40;4.17;;;;;;;;;;5066069;28;24441;-46
2022/06/20 14:09:53;;;;;;;4.60;4.30;;;;;;;;;;5067570;28;25011;-46
2022/06/20 14:12:36;;;;;;;4.53;4.22;;;;;;;;;;5067285;28;25271;-47
2022/06/20 14:15:06;;;;;;;4.20;3.90;;;;;;;;;;5067544;28;24492;-46
2022/06/20 14:17:32;;;;;;;5.07;4.57;;;;;;;;;;5065610;28;24438;-46
2022/06/20 14:20:00;;;;;;;5.55;5.10;;;;;;;;;;5065536;28;24401;-47
2022/06/20 14:22:33;;;;;;;5.50;5.03;;;;;;;;;;5067358;28;24773;-46
2022/06/20 14:25:00;;;;;;;5.00;4.60;;;;;;;;;;5067712;28;24468;-47
2022/06/20 14:27:27;;;;;;;5.03;4.72;;;;;;;;;;5067173;28;24971;-47
2022/06/20 14:29:59;;;;;;;5.10;4.70;;;;;;;;;;5066663;28;24430;-46
2022/06/20 14:32:28;;;;;;;5.30;4.90;;;;;;;;;;5067437;28;24402;-47
2022/06/20 14:37:46;;;;;;;5.93;5.43;;;;;;;;;;5067206;28;24924;-46
2022/06/20 14:40:16;;;;;;;6.00;5.60;;;;;;;;;;5066942;28;24429;-46
2022/06/20 14:42:43;;;;;;;5.57;5.18;;;;;;;;;;5066438;28;24414;-46
2022/06/20 14:45:21;;;;;;;4.87;4.57;;;;;;;;;;5066923;28;24713;-47
2022/06/20 14:47:51;;;;;;;5.20;4.90;;;;;;;;;;5066992;28;24393;-45
2022/06/20 14:50:18;;;;;;;4.60;4.20;;;;;;;;;;5067078;28;24746;-45
2022/06/20 14:52:43;;;;;;;4.80;4.40;;;;;;;;;;5067098;28;24429;-46
2022/06/20 14:55:14;;;;;;;4.38;3.97;;;;;;;;;;5066066;28;24774;-46
2022/06/20 14:57:46;;;;;;;3.92;3.63;;;;;;;;;;5066759;28;24421;-47
2022/06/20 15:00:35;;;;;;;4.47;4.18;;;;;;;;;;5066729;28;25056;-47
2022/06/20 15:03:16;;;;;;;3.00;2.80;;;;;;;;;;5066858;28;24490;-46
2022/06/20 15:06:01;;;;;;;1.50;1.40;;;;;;;;;;5065924;28;24406;-46
2022/06/20 15:08:36;;;;;;;1.20;1.20;;;;;;;;;;5063073;28;24435;-46
2022/06/20 15:11:37;;;;;;;1.10;1.00;;;;;;;;;;5055370;28;24557;-47
2022/06/20 15:14:11;;;;;;;1.10;0.90;;;;;;;;;;5004545;28;24470;-47
2022/06/20 15:16:44;;;;;;;1.00;0.90;;;;;;;;;;5040597;28;24415;-47
2022/06/20 15:19:28;;;;;;;1.10;1.00;;;;;;;;;;5046912;28;24479;-46
2022/06/20 15:22:03;;;;;;;0.93;0.93;;;;;;;;;;5065599;28;24427;-45
2022/06/20 15:24:42;;;;;;;1.07;1.07;;;;;;;;;;5066663;28;25007;-46
2022/06/20 15:27:20;;;;;;;0.80;0.80;;;;;;;;;;5066500;28;24723;-46
2022/06/20 15:29:49;;;;;;;1.30;1.20;;;;;;;;;;5065296;28;24458;-46